Time;durP1;ratioP1;P1;durP2;ratioP2;P2;SDS_P1;SDS_P2;PMS_P1;PMS_P2;Temp;Humidity;BMP_temperature;BMP_pressure;BME280_temperature;BME280_humidity;BME280_pressure;Samples;Min_cycle;Max_cycle;Signal;HPM_P1;HPM_P2
2022/09/10 03:01:34;;;;;;;0.55;0.20;;;25.00;44.80;;;;;;5452188;23;45553;-63
2022/09/10 03:03:59;;;;;;;0.20;0.20;;;25.00;44.80;;;;;;4972097;28;44960;-64
2022/09/10 03:06:25;;;;;;;0.88;0.20;;;25.00;44.70;;;;;;4986524;28;44658;-64
2022/09/10 03:08:51;;;;;;;0.30;0.20;;;25.00;44.70;;;;;;4968138;28;45258;-64
2022/09/10 03:11:18;;;;;;;1.40;0.30;;;25.10;44.80;;;;;;4969564;28;45120;-64
2022/09/10 03:13:44;;;;;;;0.95;0.40;;;25.00;44.70;;;;;;4999049;28;45204;-65
2022/09/10 03:16:13;;;;;;;0.20;0.17;;;25.00;44.70;;;;;;4986392;28;45594;-64
2022/09/10 03:18:42;;;;;;;0.32;0.30;;;25.00;44.70;;;;;;4987898;28;46236;-64
2022/09/10 03:21:09;;;;;;;0.20;0.20;;;25.00;44.70;;;;;;4992170;28;45423;-64
2022/09/10 03:23:35;;;;;;;0.55;0.25;;;25.00;44.70;;;;;;4991585;28;45152;-64
2022/09/10 03:26:03;;;;;;;0.22;0.20;;;25.00;44.70;;;;;;4971997;28;45145;-65
2022/09/10 03:28:28;;;;;;;0.68;0.22;;;25.00;44.70;;;;;;4970543;28;45006;-63
2022/09/10 03:30:54;;;;;;;0.50;0.30;;;25.00;44.70;;;;;;5008388;28;45178;-64
2022/09/10 03:33:20;;;;;;;0.32;0.20;;;25.00;44.70;;;;;;4997057;28;45073;-64
2022/09/10 03:35:47;;;;;;;0.45;0.30;;;25.00;44.70;;;;;;5009542;28;45160;-63
2022/09/10 03:38:13;;;;;;;0.20;0.10;;;25.00;44.70;;;;;;4992540;28;45045;-64
2022/09/10 03:40:38;;;;;;;0.85;0.30;;;25.00;44.80;;;;;;5006623;28;45132;-64
2022/09/10 03:43:04;;;;;;;0.70;0.30;;;25.00;44.80;;;;;;4989219;28;45359;-64
2022/09/10 03:45:30;;;;;;;0.25;0.20;;;25.00;44.70;;;;;;4978214;28;45369;-65
2022/09/10 03:47:55;;;;;;;0.40;0.22;;;25.00;44.70;;;;;;4999500;28;45155;-64
2022/09/10 03:50:21;;;;;;;0.20;0.20;;;25.00;44.70;;;;;;4990055;28;44748;-63
2022/09/10 03:52:46;;;;;;;0.22;0.08;;;25.00;44.70;;;;;;5008858;28;45297;-63
2022/09/10 03:55:12;;;;;;;0.20;0.20;;;25.00;44.70;;;;;;4958751;28;44865;-63
2022/09/10 03:57:40;;;;;;;0.28;0.20;;;25.00;44.90;;;;;;4989475;28;46350;-64
2022/09/10 04:00:08;;;;;;;0.20;0.20;;;25.00;44.80;;;;;;4990364;28;45239;-65
2022/09/10 04:02:33;;;;;;;0.30;0.30;;;25.00;44.80;;;;;;4969200;28;45005;-65
2022/09/10 04:04:59;;;;;;;0.20;0.20;;;25.00;44.80;;;;;;4982569;28;44710;-64
2022/09/10 04:07:24;;;;;;;0.95;0.32;;;25.00;44.80;;;;;;4990709;28;46902;-64
2022/09/10 04:09:50;;;;;;;0.75;0.32;;;25.00;44.80;;;;;;4985775;28;44941;-64
2022/09/10 04:12:16;;;;;;;0.43;0.30;;;25.00;44.80;;;;;;5001658;28;45280;-63
2022/09/10 04:14:44;;;;;;;0.57;0.30;;;25.00;44.80;;;;;;4980596;28;45571;-63
2022/09/10 04:17:10;;;;;;;0.50;0.20;;;25.00;44.80;;;;;;4977303;28;46520;-64
2022/09/10 04:19:36;;;;;;;0.45;0.30;;;24.90;44.70;;;;;;5009814;28;44738;-65
2022/09/10 04:22:02;;;;;;;0.90;0.10;;;24.90;44.80;;;;;;4987954;28;45221;-64
2022/09/10 04:24:28;;;;;;;0.43;0.10;;;24.90;44.80;;;;;;5008677;28;45422;-64
2022/09/10 04:26:53;;;;;;;0.30;0.30;;;24.90;44.80;;;;;;4975561;28;45973;-64
2022/09/10 04:29:19;;;;;;;0.90;0.30;;;24.90;44.80;;;;;;5006255;28;45298;-66
2022/09/10 04:31:45;;;;;;;0.57;0.30;;;24.90;44.80;;;;;;5008147;28;44852;-65
2022/09/10 04:34:11;;;;;;;0.22;0.22;;;24.90;44.80;;;;;;4985117;28;45119;-64
2022/09/10 04:36:37;;;;;;;0.68;0.20;;;25.00;44.80;;;;;;4991219;28;46161;-64
2022/09/10 04:39:02;;;;;;;0.50;0.20;;;24.90;44.80;;;;;;5003530;28;44913;-65
2022/09/10 04:41:28;;;;;;;0.13;0.10;;;24.90;44.80;;;;;;5006656;28;45186;-65
2022/09/10 04:43:53;;;;;;;0.57;0.30;;;24.90;44.80;;;;;;4989017;28;44897;-64
2022/09/10 04:46:19;;;;;;;0.40;0.20;;;24.90;44.80;;;;;;4975597;28;45390;-64
2022/09/10 04:48:45;;;;;;;0.52;0.20;;;24.90;44.90;;;;;;5002623;28;44819;-64
2022/09/10 04:51:12;;;;;;;0.28;0.28;;;24.90;44.90;;;;;;4982026;28;45305;-63
2022/09/10 04:53:38;;;;;;;0.63;0.30;;;24.90;44.90;;;;;;4992260;28;45094;-64
2022/09/10 04:56:04;;;;;;;0.20;0.20;;;24.90;44.90;;;;;;4997029;28;45013;-64
2022/09/10 04:58:30;;;;;;;0.28;0.20;;;24.90;44.90;;;;;;4986812;28;45219;-65
2022/09/10 05:00:55;;;;;;;0.55;0.20;;;24.90;44.90;;;;;;5006953;28;45260;-63
2022/09/10 05:03:22;;;;;;;0.35;0.28;;;24.90;44.90;;;;;;4994315;28;45126;-64
2022/09/10 05:05:47;;;;;;;0.10;0.10;;;24.90;44.90;;;;;;4988287;28;44967;-63
2022/09/10 05:08:13;;;;;;;0.30;0.10;;;24.90;44.90;;;;;;4973684;28;44951;-64
2022/09/10 05:10:40;;;;;;;1.63;0.20;;;24.90;44.90;;;;;;4989198;28;45449;-64
2022/09/10 05:13:06;;;;;;;0.30;0.20;;;24.90;44.90;;;;;;4974856;28;44991;-64
2022/09/10 05:15:33;;;;;;;0.55;0.20;;;24.90;44.90;;;;;;5000928;28;47242;-64
2022/09/10 05:17:59;;;;;;;0.40;0.20;;;24.90;44.90;;;;;;5007682;28;45305;-64
2022/09/10 05:20:26;;;;;;;0.68;0.30;;;24.90;44.90;;;;;;4976104;28;45001;-64
2022/09/10 05:22:55;;;;;;;0.17;0.17;;;24.90;44.90;;;;;;4988931;28;44943;-64
2022/09/10 05:25:20;;;;;;;0.63;0.30;;;24.90;44.90;;;;;;4986331;28;44901;-63
2022/09/10 05:27:47;;;;;;;0.22;0.20;;;24.90;44.90;;;;;;4975632;28;44943;-64
2022/09/10 05:30:12;;;;;;;0.30;0.30;;;24.90;44.90;;;;;;4983660;28;45042;-63
2022/09/10 05:32:39;;;;;;;0.10;0.10;;;24.90;44.90;;;;;;4973528;28;44781;-63
2022/09/10 05:35:06;;;;;;;0.32;0.20;;;24.90;44.90;;;;;;4960007;28;45691;-64
2022/09/10 05:37:32;;;;;;;0.32;0.20;;;24.90;44.90;;;;;;4988007;28;45105;-64
2022/09/10 05:39:58;;;;;;;0.93;0.20;;;24.90;44.90;;;;;;4978640;28;45239;-64
2022/09/10 05:42:24;;;;;;;0.47;0.20;;;24.80;44.80;;;;;;4991398;28;45037;-65
2022/09/10 05:44:50;;;;;;;0.55;0.20;;;24.80;44.80;;;;;;4988961;28;44967;-65
2022/09/10 05:47:16;;;;;;;1.13;0.20;;;24.80;44.90;;;;;;4971970;28;45073;-64
2022/09/10 05:49:41;;;;;;;0.20;0.20;;;24.80;44.90;;;;;;4986286;28;45193;-63
2022/09/10 05:52:08;;;;;;;0.50;0.10;;;24.80;44.90;;;;;;4972579;28;45203;-64
2022/09/10 05:54:34;;;;;;;0.40;0.20;;;24.90;45.00;;;;;;4990621;28;46609;-64
2022/09/10 05:57:00;;;;;;;0.20;0.20;;;24.80;44.90;;;;;;5007114;28;44955;-64
2022/09/10 05:59:26;;;;;;;0.20;0.20;;;24.80;44.90;;;;;;5011460;28;45029;-64
2022/09/10 06:01:51;;;;;;;0.73;0.25;;;24.80;44.90;;;;;;5009464;28;45066;-64
2022/09/10 06:04:18;;;;;;;0.20;0.20;;;24.80;45.00;;;;;;4978925;28;46117;-63
2022/09/10 06:06:44;;;;;;;0.20;0.10;;;24.80;44.90;;;;;;5007657;28;45484;-64
2022/09/10 06:09:10;;;;;;;0.17;0.10;;;24.80;45.50;;;;;;4946132;28;45164;-65
2022/09/10 06:11:35;;;;;;;0.10;0.10;;;24.90;45.00;;;;;;4977070;28;44693;-64
2022/09/10 06:14:01;;;;;;;0.20;0.17;;;24.80;45.00;;;;;;5007384;28;45133;-65
2022/09/10 06:16:27;;;;;;;0.50;0.30;;;24.80;45.00;;;;;;4984999;28;45020;-64
2022/09/10 06:18:53;;;;;;;0.32;0.20;;;24.80;45.00;;;;;;5013036;28;44912;-64
2022/09/10 06:21:18;;;;;;;0.32;0.20;;;24.80;45.00;;;;;;4959789;28;45101;-65
2022/09/10 06:23:44;;;;;;;0.60;0.32;;;24.80;45.00;;;;;;4975491;28;45009;-64
2022/09/10 06:26:11;;;;;;;0.80;0.22;;;24.80;45.00;;;;;;4977244;28;45004;-65
2022/09/10 06:28:37;;;;;;;0.10;0.10;;;24.80;45.00;;;;;;4995159;28;44999;-65
2022/09/10 06:31:03;;;;;;;0.30;0.20;;;24.80;45.00;;;;;;5011878;28;45014;-65
2022/09/10 06:33:29;;;;;;;0.20;0.20;;;24.80;45.00;;;;;;4994383;28;44998;-64
2022/09/10 06:35:59;;;;;;;0.50;0.30;;;24.80;45.70;;;;;;4995145;28;45115;-64
2022/09/10 06:38:26;;;;;;;0.40;0.20;;;24.80;45.10;;;;;;4984138;28;45089;-64
2022/09/10 06:40:58;;;;;;;1.08;0.32;;;24.80;45.10;;;;;;4989041;28;45137;-64
2022/09/10 06:43:24;;;;;;;0.40;0.20;;;24.80;45.10;;;;;;4996796;28;46185;-64
2022/09/10 06:45:51;;;;;;;0.38;0.30;;;24.80;45.10;;;;;;4975339;28;45290;-64
2022/09/10 06:48:18;;;;;;;0.60;0.20;;;24.80;45.10;;;;;;4993930;28;45380;-64
2022/09/10 06:50:52;;;;;;;1.35;0.25;;;24.80;45.10;;;;;;4968562;28;45950;-65
2022/09/10 06:53:20;;;;;;;0.40;0.30;;;24.80;45.10;;;;;;5002356;28;46404;-63
2022/09/10 06:55:45;;;;;;;0.20;0.17;;;24.80;45.10;;;;;;4987934;28;45197;-63
2022/09/10 06:58:11;;;;;;;0.20;0.10;;;24.80;45.10;;;;;;4987761;28;45044;-65
2022/09/10 07:00:38;;;;;;;0.20;0.17;;;24.80;45.10;;;;;;4985180;28;45148;-65
2022/09/10 07:03:03;;;;;;;0.10;0.10;;;24.80;45.10;;;;;;4968108;28;45056;-64
2022/09/10 07:05:32;;;;;;;0.10;0.10;;;24.80;45.10;;;;;;4969916;28;45170;-64
2022/09/10 07:07:57;;;;;;;0.50;0.32;;;24.80;45.20;;;;;;5002797;28;45106;-64
2022/09/10 07:10:23;;;;;;;0.98;0.32;;;24.80;45.20;;;;;;5002633;28;45112;-64
2022/09/10 07:12:49;;;;;;;0.85;0.20;;;24.80;45.20;;;;;;4967072;28;47324;-65
2022/09/10 07:15:14;;;;;;;0.20;0.20;;;24.80;45.10;;;;;;5002647;28;44822;-64
2022/09/10 07:17:40;;;;;;;0.10;0.10;;;24.80;45.10;;;;;;4981244;28;45253;-64
2022/09/10 07:20:06;;;;;;;0.50;0.20;;;24.80;45.10;;;;;;5003947;28;45718;-65
2022/09/10 07:22:31;;;;;;;0.38;0.20;;;24.80;45.10;;;;;;4997034;28;46215;-63
2022/09/10 07:24:57;;;;;;;0.10;0.10;;;24.80;45.20;;;;;;5000398;28;44946;-64
2022/09/10 07:27:24;;;;;;;0.63;0.30;;;24.80;45.20;;;;;;4980858;28;45296;-64
2022/09/10 07:29:50;;;;;;;0.22;0.20;;;24.80;45.20;;;;;;5000027;28;45136;-63
2022/09/10 07:32:17;;;;;;;0.22;0.20;;;24.80;45.20;;;;;;4983605;28;46263;-66
2022/09/10 07:34:43;;;;;;;0.68;0.30;;;24.80;45.20;;;;;;4968642;28;44705;-64
2022/09/10 07:37:08;;;;;;;0.30;0.22;;;24.80;45.10;;;;;;4981365;28;45328;-64
2022/09/10 07:39:34;;;;;;;0.30;0.20;;;24.80;45.10;;;;;;4968507;28;44898;-65
2022/09/10 07:42:00;;;;;;;0.20;0.20;;;24.80;45.10;;;;;;4983577;28;46055;-63
2022/09/10 07:44:25;;;;;;;0.40;0.40;;;24.80;45.10;;;;;;4980710;28;44915;-64
2022/09/10 07:46:51;;;;;;;0.43;0.10;;;24.80;45.00;;;;;;4984695;28;45519;-65
2022/09/10 07:49:17;;;;;;;0.30;0.30;;;24.90;45.00;;;;;;4983970;28;45272;-64
2022/09/10 07:51:42;;;;;;;0.20;0.15;;;24.90;45.00;;;;;;4979139;28;45036;-65
2022/09/10 07:54:08;;;;;;;0.32;0.17;;;24.90;45.00;;;;;;5000565;28;45305;-64
2022/09/10 07:56:33;;;;;;;0.20;0.20;;;24.90;45.00;;;;;;4999913;28;44700;-64
2022/09/10 07:59:01;;;;;;;0.75;0.30;;;24.90;44.90;;;;;;4979210;28;45162;-64
2022/09/10 08:01:27;;;;;;;2.38;0.10;;;24.90;44.90;;;;;;4981768;28;45221;-65
2022/09/10 08:03:55;;;;;;;0.20;0.20;;;24.90;45.00;;;;;;4966084;28;45214;-64
2022/09/10 08:06:22;;;;;;;0.60;0.25;;;24.90;45.00;;;;;;4965324;28;44898;-64
2022/09/10 08:08:47;;;;;;;0.40;0.10;;;24.90;45.00;;;;;;4982658;28;45294;-65
2022/09/10 08:11:17;;;;;;;0.20;0.17;;;24.90;45.00;;;;;;4999665;28;46174;-65
2022/09/10 08:13:47;;;;;;;0.28;0.20;;;25.00;45.00;;;;;;5002221;28;45457;-64
2022/09/10 08:16:15;;;;;;;0.15;0.10;;;25.00;45.00;;;;;;4984701;28;46067;-64
2022/09/10 08:18:42;;;;;;;0.55;0.15;;;25.00;45.00;;;;;;4967503;28;45216;-64
2022/09/10 08:21:08;;;;;;;0.47;0.17;;;24.90;44.90;;;;;;5004624;28;45093;-65
2022/09/10 08:23:34;;;;;;;0.60;0.28;;;25.00;45.00;;;;;;4985119;28;44994;-65
2022/09/10 08:26:00;;;;;;;0.20;0.20;;;24.90;45.00;;;;;;4986955;28;45467;-64
2022/09/10 08:28:26;;;;;;;0.30;0.20;;;24.90;45.00;;;;;;4987555;28;45098;-65
2022/09/10 08:31:11;;;;;;;0.40;0.20;;;24.90;45.00;;;;;;4985407;28;44887;-63
2022/09/10 08:33:39;;;;;;;0.20;0.13;;;24.90;45.00;;;;;;4986321;28;45187;-64
2022/09/10 08:36:06;;;;;;;0.22;0.20;;;24.90;45.00;;;;;;4987993;28;45069;-64
2022/09/10 08:38:39;;;;;;;0.68;0.30;;;24.90;45.00;;;;;;4941474;28;44848;-64
2022/09/10 08:41:20;;;;;;;0.30;0.13;;;24.90;45.00;;;;;;4953342;28;46023;-64
2022/09/10 08:43:50;;;;;;;0.20;0.20;;;24.90;45.00;;;;;;5004968;28;44975;-64
2022/09/10 08:46:21;;;;;;;0.70;0.20;;;24.90;45.00;;;;;;4984989;28;45307;-65
2022/09/10 08:48:48;;;;;;;0.73;0.30;;;25.00;45.00;;;;;;4970067;28;45300;-64
2022/09/10 08:51:24;;;;;;;0.10;0.10;;;25.00;45.00;;;;;;4971127;28;46623;-64
2022/09/10 08:53:55;;;;;;;0.40;0.30;;;25.00;45.00;;;;;;4968872;28;45092;-63
2022/09/10 08:56:21;;;;;;;0.20;0.20;;;25.00;45.00;;;;;;4983750;28;45477;-62
2022/09/10 08:58:53;;;;;;;0.20;0.20;;;24.90;45.00;;;;;;4983158;28;45361;-64
2022/09/10 09:01:39;;;;;;;0.20;0.20;;;25.00;45.00;;;;;;4984389;28;45379;-63
2022/09/10 09:04:11;;;;;;;0.15;0.15;;;25.00;45.10;;;;;;4983759;28;45033;-64
2022/09/10 09:06:40;;;;;;;0.50;0.30;;;25.00;45.00;;;;;;4984688;28;44803;-64
2022/09/10 09:09:05;;;;;;;0.38;0.20;;;24.90;45.00;;;;;;4962726;28;45249;-63
2022/09/10 09:11:52;;;;;;;0.57;0.15;;;24.90;45.00;;;;;;5000962;28;45449;-64
2022/09/10 09:14:32;;;;;;;0.20;0.20;;;25.00;45.10;;;;;;4987903;28;44955;-64
2022/09/10 09:17:22;;;;;;;0.20;0.10;;;25.00;45.10;;;;;;4972701;28;45249;-65
2022/09/10 09:19:52;;;;;;;0.20;0.10;;;25.00;45.00;;;;;;5003590;28;44828;-63
2022/09/10 09:23:00;;;;;;;0.20;0.20;;;24.90;45.00;;;;;;4983969;28;45988;-63
2022/09/10 09:25:58;;;;;;;0.60;0.30;;;25.00;45.10;;;;;;4986538;28;45465;-63
2022/09/10 09:28:32;;;;;;;0.57;0.30;;;25.00;45.10;;;;;;4986457;28;45069;-63
2022/09/10 09:30:58;;;;;;;0.20;0.20;;;24.90;45.10;;;;;;5004872;28;44913;-64
2022/09/10 09:33:24;;;;;;;0.52;0.10;;;25.00;45.30;;;;;;4968933;28;45469;-63
2022/09/10 09:36:01;;;;;;;0.30;0.20;;;24.90;45.10;;;;;;4973676;28;45028;-64
2022/09/10 09:38:33;;;;;;;0.30;0.20;;;25.00;45.10;;;;;;4998974;28;44984;-64
2022/09/10 09:41:06;;;;;;;0.65;0.28;;;25.00;45.00;;;;;;5001907;28;45348;-63
2022/09/10 09:43:34;;;;;;;0.52;0.30;;;25.00;45.00;;;;;;4968074;28;45890;-64
2022/09/10 09:45:59;;;;;;;0.63;0.20;;;25.00;45.00;;;;;;4986702;28;44721;-63
2022/09/10 09:48:25;;;;;;;0.35;0.20;;;25.00;45.00;;;;;;4987225;28;45139;-64
2022/09/10 09:50:53;;;;;;;0.35;0.20;;;25.00;45.00;;;;;;4971772;28;45357;-65
2022/09/10 09:53:24;;;;;;;1.17;0.30;;;25.00;45.00;;;;;;4969629;28;46058;-63
2022/09/10 09:55:53;;;;;;;0.28;0.10;;;25.00;45.00;;;;;;4970631;28;45136;-63
2022/09/10 09:58:28;;;;;;;0.85;0.35;;;25.00;45.00;;;;;;4987580;28;44999;-65
2022/09/10 10:01:03;;;;;;;0.43;0.20;;;25.10;45.00;;;;;;5001570;28;45313;-65
2022/09/10 10:03:51;;;;;;;0.28;0.20;;;25.00;45.00;;;;;;4971069;28;46999;-64
2022/09/10 10:06:18;;;;;;;1.25;0.30;;;25.00;45.10;;;;;;4987715;28;44840;-66
2022/09/10 10:09:01;;;;;;;0.45;0.10;;;25.00;45.00;;;;;;4955121;28;45751;-65
2022/09/10 10:12:03;;;;;;;0.20;0.20;;;25.00;45.10;;;;;;4984700;28;45669;-64
2022/09/10 10:14:33;;;;;;;0.22;0.10;;;25.00;45.20;;;;;;4956503;28;44918;-64
2022/09/10 10:16:59;;;;;;;0.38;0.10;;;25.00;45.20;;;;;;4987088;28;45445;-64
2022/09/10 10:19:27;;;;;;;0.52;0.20;;;25.00;45.10;;;;;;4985972;28;45050;-64
2022/09/10 10:21:53;;;;;;;0.22;0.17;;;25.00;45.10;;;;;;4968520;28;44895;-63
2022/09/10 10:24:30;;;;;;;0.45;0.13;;;25.00;45.20;;;;;;4985417;28;44989;-65
2022/09/10 10:26:57;;;;;;;0.40;0.20;;;25.00;45.20;;;;;;4971892;28;44932;-63
2022/09/10 10:29:22;;;;;;;0.65;0.30;;;25.00;45.20;;;;;;4984579;28;45195;-65
2022/09/10 10:31:48;;;;;;;0.20;0.20;;;25.00;45.20;;;;;;4987389;28;45126;-64
2022/09/10 10:34:39;;;;;;;0.20;0.20;;;25.00;45.20;;;;;;4969095;28;45041;-64
2022/09/10 10:37:15;;;;;;;0.20;0.20;;;25.00;45.30;;;;;;4970417;28;46160;-63
2022/09/10 10:39:59;;;;;;;0.68;0.20;;;25.00;45.30;;;;;;4984571;28;44910;-63
2022/09/10 10:42:41;;;;;;;0.50;0.30;;;25.00;45.30;;;;;;5004278;28;45795;-63
2022/09/10 10:45:24;;;;;;;0.60;0.30;;;25.00;45.20;;;;;;4969598;28;45650;-63
2022/09/10 10:48:03;;;;;;;0.28;0.28;;;25.00;45.20;;;;;;4984225;28;45125;-63
2022/09/10 10:51:10;;;;;;;2.55;0.30;;;25.00;45.20;;;;;;4986635;28;44975;-64
2022/09/10 10:53:52;;;;;;;0.47;0.17;;;25.00;45.30;;;;;;4980584;28;45145;-63
2022/09/10 10:56:41;;;;;;;0.20;0.20;;;25.00;45.30;;;;;;5001115;28;44965;-64
2022/09/10 10:59:44;;;;;;;0.17;0.15;;;25.00;45.30;;;;;;4972882;28;44932;-63
2022/09/10 11:02:34;;;;;;;0.68;0.20;;;25.00;45.30;;;;;;4951731;28;59752;-63
2022/09/10 11:05:04;;;;;;;0.13;0.13;;;25.00;45.20;;;;;;4981390;28;45107;-63
2022/09/10 11:07:33;;;;;;;0.30;0.20;;;25.00;45.20;;;;;;4964477;28;45157;-64
2022/09/10 11:10:18;;;;;;;0.50;0.30;;;25.00;45.20;;;;;;4968206;28;45031;-63
2022/09/10 11:13:22;;;;;;;0.40;0.13;;;25.00;45.20;;;;;;4971017;28;45025;-64
2022/09/10 11:15:52;;;;;;;0.20;0.10;;;25.00;45.20;;;;;;4952359;28;46627;-64
2022/09/10 11:18:41;;;;;;;0.40;0.20;;;25.00;45.20;;;;;;4953717;28;45565;-64
2022/09/10 11:21:24;;;;;;;0.28;0.28;;;25.00;45.20;;;;;;4965267;28;44721;-64
2022/09/10 11:24:11;;;;;;;0.40;0.10;;;25.00;45.30;;;;;;4980368;28;45284;-64
2022/09/10 11:26:47;;;;;;;0.57;0.30;;;25.00;45.30;;;;;;4966554;28;45565;-64
2022/09/10 11:29:41;;;;;;;0.28;0.17;;;25.00;45.20;;;;;;4966942;28;46089;-64
2022/09/10 11:32:11;;;;;;;0.82;0.20;;;25.10;45.30;;;;;;4968529;28;45163;-64
2022/09/10 11:34:48;;;;;;;0.32;0.22;;;25.00;45.20;;;;;;4950166;28;45343;-65
2022/09/10 11:37:34;;;;;;;0.30;0.20;;;25.00;45.30;;;;;;4951843;28;45311;-63
2022/09/10 11:40:04;;;;;;;0.40;0.28;;;25.10;45.30;;;;;;4950782;28;46309;-64
2022/09/10 11:42:38;;;;;;;0.60;0.20;;;25.00;45.30;;;;;;4982860;28;44911;-64
2022/09/10 11:45:30;;;;;;;0.32;0.20;;;25.00;45.30;;;;;;4982398;28;45263;-63
2022/09/10 11:48:12;;;;;;;0.20;0.10;;;25.10;45.40;;;;;;4971247;28;45144;-64
2022/09/10 11:50:57;;;;;;;0.77;0.30;;;25.10;45.30;;;;;;4971852;28;46180;-64
2022/09/10 11:53:23;;;;;;;2.65;0.30;;;25.10;45.30;;;;;;4970856;28;45245;-64
2022/09/10 11:55:56;;;;;;;0.43;0.30;;;25.00;45.30;;;;;;4987249;28;45067;-63
2022/09/10 11:58:36;;;;;;;0.65;0.30;;;25.00;45.30;;;;;;4986761;28;44995;-63
2022/09/10 12:01:28;;;;;;;0.60;0.40;;;25.00;45.40;;;;;;4990335;28;46206;-63
2022/09/10 12:04:04;;;;;;;0.30;0.20;;;25.00;45.50;;;;;;4976811;28;45198;-64
2022/09/10 12:07:08;;;;;;;0.20;0.20;;;25.00;45.50;;;;;;4970944;28;45176;-64
2022/09/10 12:09:37;;;;;;;0.65;0.30;;;25.00;45.40;;;;;;5006404;28;45247;-63
2022/09/10 12:12:21;;;;;;;0.45;0.20;;;25.00;45.30;;;;;;4996492;28;45171;-64
2022/09/10 12:14:46;;;;;;;1.15;0.20;;;25.10;45.40;;;;;;4976270;28;45320;-63
2022/09/10 12:17:18;;;;;;;0.60;0.38;;;25.00;45.30;;;;;;4992845;28;44624;-63
2022/09/10 12:19:46;;;;;;;0.63;0.20;;;25.10;45.40;;;;;;4976946;28;45031;-63
2022/09/10 12:22:20;;;;;;;0.43;0.28;;;25.10;45.40;;;;;;4971027;28;45038;-64
2022/09/10 12:25:05;;;;;;;0.63;0.20;;;25.10;45.40;;;;;;4974068;28;44690;-64
2022/09/10 12:27:48;;;;;;;1.42;0.20;;;25.10;45.40;;;;;;5006380;28;45147;-63
2022/09/10 12:30:34;;;;;;;0.43;0.27;;;25.10;45.50;;;;;;4954758;28;45037;-64
2022/09/10 12:33:15;;;;;;;0.68;0.20;;;25.10;45.40;;;;;;5002204;28;45625;-64
2022/09/10 12:35:45;;;;;;;0.38;0.20;;;25.10;45.40;;;;;;4979528;28;44983;-63
2022/09/10 12:38:45;;;;;;;0.63;0.20;;;25.00;45.40;;;;;;4996999;28;44959;-64
2022/09/10 12:41:22;;;;;;;1.00;0.30;;;25.10;45.50;;;;;;5005374;28;45225;-64
2022/09/10 12:43:48;;;;;;;0.38;0.20;;;25.10;45.40;;;;;;5000502;28;44961;-64
2022/09/10 12:46:13;;;;;;;0.68;0.30;;;25.10;45.30;;;;;;5005136;28;45246;-63
2022/09/10 12:48:43;;;;;;;1.02;0.30;;;25.10;45.30;;;;;;4992954;28;44821;-63
2022/09/10 12:51:12;;;;;;;0.93;0.17;;;25.10;45.30;;;;;;4989730;28;45145;-64
2022/09/10 12:53:59;;;;;;;1.00;0.35;;;25.10;45.20;;;;;;4985309;28;45750;-64
2022/09/10 12:56:44;;;;;;;0.20;0.20;;;25.10;45.30;;;;;;5008185;28;45031;-65
2022/09/10 12:59:36;;;;;;;0.20;0.20;;;25.10;45.30;;;;;;4992511;28;44910;-64
2022/09/10 13:02:01;;;;;;;1.17;0.57;;;25.10;45.20;;;;;;4991854;28;46142;-64
2022/09/10 13:04:34;;;;;;;1.00;0.40;;;25.20;45.20;;;;;;4975246;28;45937;-64
2022/09/10 13:07:18;;;;;;;0.32;0.10;;;25.20;45.20;;;;;;4978645;28;44928;-64
2022/09/10 13:09:43;;;;;;;0.50;0.30;;;25.20;45.20;;;;;;4994730;28;44789;-63
2022/09/10 13:12:17;;;;;;;0.47;0.25;;;25.20;45.20;;;;;;4990346;28;45251;-63
2022/09/10 13:14:45;;;;;;;0.28;0.28;;;25.20;45.20;;;;;;4988356;28;46440;-64
2022/09/10 13:17:58;;;;;;;0.57;0.20;;;25.20;45.20;;;;;;4961559;28;45137;-64
2022/09/10 13:20:24;;;;;;;0.43;0.20;;;25.20;45.20;;;;;;5004517;28;45125;-64
2022/09/10 13:22:57;;;;;;;0.38;0.20;;;25.20;45.20;;;;;;5008124;28;45927;-63
2022/09/10 13:25:26;;;;;;;0.17;0.17;;;25.20;45.70;;;;;;4985464;28;45072;-64
2022/09/10 13:27:52;;;;;;;1.58;0.38;;;25.20;45.20;;;;;;4973391;28;45173;-63
2022/09/10 13:30:19;;;;;;;0.25;0.20;;;25.20;45.20;;;;;;4958871;28;45549;-64
2022/09/10 13:32:59;;;;;;;0.35;0.30;;;25.20;45.30;;;;;;4971810;28;44990;-64
2022/09/10 13:35:32;;;;;;;0.75;0.20;;;25.20;45.20;;;;;;4971693;28;45512;-64
2022/09/10 13:37:58;;;;;;;;;;;25.20;45.20;;;;;;4991398;28;44986;-64
2022/09/10 13:40:47;;;;;;;1.48;0.40;;;25.20;45.30;;;;;;5003690;28;44994;-64
2022/09/10 13:43:40;;;;;;;0.85;0.30;;;25.20;45.20;;;;;;4997059;28;45192;-64
2022/09/10 13:46:10;;;;;;;0.32;0.20;;;25.20;45.20;;;;;;4987619;28;44881;-64
2022/09/10 13:48:45;;;;;;;0.75;0.30;;;25.20;45.20;;;;;;4978826;28;45056;-64
2022/09/10 13:51:22;;;;;;;1.10;0.30;;;25.20;45.20;;;;;;4993923;28;44819;-64
2022/09/10 13:53:48;;;;;;;0.57;0.20;;;25.20;45.20;;;;;;4988562;28;44634;-64
2022/09/10 13:56:25;;;;;;;1.02;0.30;;;25.20;45.10;;;;;;4972542;28;44982;-65
2022/09/10 13:59:02;;;;;;;0.68;0.28;;;25.30;45.10;;;;;;4979084;28;44792;-65
2022/09/10 14:01:47;;;;;;;0.70;0.30;;;25.30;45.10;;;;;;4981117;28;44909;-63
2022/09/10 14:04:31;;;;;;;0.82;0.30;;;25.30;45.10;;;;;;4972383;28;44698;-64
2022/09/10 14:07:19;;;;;;;1.10;0.20;;;25.30;45.00;;;;;;4966052;28;45955;-64
2022/09/10 14:09:47;;;;;;;0.90;0.28;;;25.30;45.00;;;;;;4941360;28;45185;-65
2022/09/10 14:12:13;;;;;;;0.63;0.30;;;25.30;45.00;;;;;;4969805;28;45022;-64
2022/09/10 14:14:43;;;;;;;2.65;0.35;;;25.30;45.00;;;;;;4951477;28;45154;-65
2022/09/10 14:17:12;;;;;;;0.65;0.30;;;25.30;44.90;;;;;;4956724;28;45197;-64
2022/09/10 14:19:49;;;;;;;0.50;0.20;;;25.30;44.90;;;;;;4980243;28;44890;-66
2022/09/10 14:22:21;;;;;;;0.57;0.20;;;25.30;44.90;;;;;;4971285;28;44979;-64
2022/09/10 14:24:56;;;;;;;0.73;0.30;;;25.30;45.00;;;;;;4956153;28;45118;-65
2022/09/10 14:27:23;;;;;;;0.50;0.25;;;25.30;45.00;;;;;;4972035;28;45318;-64
2022/09/10 14:29:49;;;;;;;0.85;0.30;;;25.30;45.00;;;;;;4972002;28;45986;-64
2022/09/10 14:32:21;;;;;;;0.30;0.20;;;25.30;45.00;;;;;;4952464;28;45207;-65
2022/09/10 14:34:47;;;;;;;0.65;0.17;;;25.30;45.00;;;;;;4976253;28;45156;-65
2022/09/10 14:37:37;;;;;;;0.38;0.28;;;25.30;45.00;;;;;;4950437;28;45129;-65
2022/09/10 14:40:19;;;;;;;0.55;0.22;;;25.30;44.90;;;;;;4954140;28;44856;-64
2022/09/10 14:42:46;;;;;;;0.32;0.20;;;25.30;45.00;;;;;;4969518;28;45060;-65
2022/09/10 14:45:40;;;;;;;0.85;0.20;;;25.30;45.00;;;;;;4954650;28;44956;-65
2022/09/10 14:48:25;;;;;;;0.63;0.25;;;25.30;45.00;;;;;;4967002;28;45987;-65
2022/09/10 14:51:02;;;;;;;1.13;0.30;;;25.30;45.00;;;;;;4971174;28;45192;-65
2022/09/10 14:53:28;;;;;;;1.08;0.30;;;25.20;45.00;;;;;;4973759;28;44986;-65
2022/09/10 14:55:53;;;;;;;0.20;0.20;;;25.20;45.10;;;;;;4970304;28;44857;-65
2022/09/10 14:58:19;;;;;;;0.52;0.20;;;25.20;45.00;;;;;;4953953;28;45257;-66
2022/09/10 15:00:44;;;;;;;0.65;0.28;;;25.20;45.00;;;;;;4958071;28;44901;-65
2022/09/10 15:03:12;;;;;;;1.02;0.20;;;25.20;45.00;;;;;;4990245;28;45549;-65
2022/09/10 15:05:38;;;;;;;0.28;0.20;;;25.20;45.00;;;;;;4971269;28;45186;-65
2022/09/10 15:08:03;;;;;;;1.17;0.40;;;25.20;45.00;;;;;;5004502;28;45251;-64
2022/09/10 15:10:29;;;;;;;0.85;0.40;;;25.20;45.00;;;;;;4967313;28;44722;-65
2022/09/10 15:12:55;;;;;;;0.77;0.20;;;25.20;45.10;;;;;;5006547;28;45274;-64
2022/09/10 15:15:21;;;;;;;0.55;0.20;;;25.20;45.10;;;;;;4975502;28;45291;-64
2022/09/10 15:17:47;;;;;;;0.65;0.20;;;25.20;45.10;;;;;;4991239;28;45985;-63
2022/09/10 15:20:13;;;;;;;0.93;0.47;;;25.20;45.10;;;;;;5003506;28;45700;-64
2022/09/10 15:22:39;;;;;;;0.30;0.30;;;25.20;45.10;;;;;;4976056;28;44972;-65
2022/09/10 15:25:05;;;;;;;0.52;0.32;;;25.20;45.10;;;;;;5001987;28;45112;-65
2022/09/10 15:27:30;;;;;;;0.55;0.25;;;25.20;45.20;;;;;;4986600;28;45818;-64
2022/09/10 15:29:56;;;;;;;0.80;0.45;;;25.20;45.20;;;;;;4990283;28;45030;-64
2022/09/10 15:32:22;;;;;;;0.90;0.28;;;25.20;45.20;;;;;;4985837;28;45025;-64
2022/09/10 15:34:49;;;;;;;1.60;0.30;;;25.20;45.30;;;;;;4993895;28;45022;-64
2022/09/10 15:37:15;;;;;;;0.93;0.20;;;25.20;45.30;;;;;;5008667;28;46185;-65
2022/09/10 15:39:41;;;;;;;0.85;0.35;;;25.20;45.20;;;;;;4974522;28;45194;-64
2022/09/10 15:42:07;;;;;;;0.30;0.30;;;25.20;45.30;;;;;;5007111;28;45357;-64
2022/09/10 15:44:33;;;;;;;0.32;0.30;;;25.20;45.20;;;;;;4993448;28;44878;-64
2022/09/10 15:47:01;;;;;;;0.32;0.30;;;25.20;45.20;;;;;;5004669;28;45410;-64
2022/09/10 15:49:27;;;;;;;0.25;0.15;;;25.20;45.30;;;;;;4986186;28;45124;-64
2022/09/10 15:51:53;;;;;;;0.57;0.20;;;25.20;45.30;;;;;;5006300;28;45212;-64
2022/09/10 15:54:19;;;;;;;1.48;0.30;;;25.20;45.30;;;;;;4993471;28;44715;-64
2022/09/10 15:56:45;;;;;;;0.30;0.20;;;25.20;45.30;;;;;;4975337;28;47574;-65
2022/09/10 15:59:11;;;;;;;2.55;0.40;;;25.20;45.30;;;;;;4988666;28;45114;-64
2022/09/10 16:01:37;;;;;;;0.73;0.20;;;25.20;45.30;;;;;;4973573;28;45519;-65
2022/09/10 16:04:02;;;;;;;0.68;0.20;;;25.20;45.90;;;;;;4992325;28;44851;-64
2022/09/10 16:06:30;;;;;;;1.55;0.20;;;25.20;45.30;;;;;;5008573;28;45904;-64
2022/09/10 16:09:00;;;;;;;0.77;0.20;;;25.20;45.30;;;;;;4989738;28;45272;-64